createdAt,value
2018-02-12T00:01:50.623Z,1.40
2018-02-12T00:04:18.773Z,1.40
2018-02-12T00:06:46.901Z,1.40
2018-02-12T00:09:15.055Z,1.40
2018-02-12T00:11:43.174Z,1.40
2018-02-12T00:14:11.330Z,1.30
2018-02-12T00:16:39.448Z,1.30
2018-02-12T00:19:08.369Z,1.30
2018-02-12T00:21:36.498Z,1.30
2018-02-12T00:24:04.647Z,1.30
2018-02-12T00:26:32.772Z,1.30
2018-02-12T00:29:00.917Z,1.30
2018-02-12T00:31:29.043Z,1.40
2018-02-12T00:33:57.196Z,1.30
2018-02-12T00:36:26.080Z,1.30
2018-02-12T00:38:54.226Z,1.50
2018-02-12T00:41:22.357Z,1.30
2018-02-12T00:43:50.514Z,1.30
2018-02-12T00:46:18.648Z,1.20
2018-02-12T00:48:46.790Z,1.20
2018-02-12T00:51:14.921Z,1.20
2018-02-12T00:53:43.833Z,1.20
2018-02-12T00:56:11.951Z,1.20
2018-02-12T00:58:40.100Z,1.20
2018-02-12T01:01:08.231Z,1.20
2018-02-12T01:03:36.377Z,1.20
2018-02-12T01:06:04.506Z,1.30
2018-02-12T01:08:32.656Z,1.30
2018-02-12T01:11:00.794Z,1.20
2018-02-12T01:13:28.950Z,1.20
2018-02-12T01:15:57.077Z,1.20
2018-02-12T01:18:25.229Z,1.20
2018-02-12T01:20:53.369Z,1.20
2018-02-12T01:23:22.284Z,1.20
2018-02-12T01:25:50.405Z,1.20
2018-02-12T01:28:18.554Z,1.20
2018-02-12T01:30:46.681Z,1.20
2018-02-12T01:33:14.839Z,1.20
2018-02-12T01:35:42.973Z,1.10
2018-02-12T01:38:11.886Z,1.10
2018-02-12T01:40:40.018Z,1.00
2018-02-12T01:43:08.177Z,1.10
2018-02-12T01:45:36.303Z,1.10
2018-02-12T01:48:04.425Z,1.10
2018-02-12T01:50:32.576Z,1.10
2018-02-12T01:53:00.703Z,1.10
2018-02-12T01:55:29.618Z,1.10
2018-02-12T01:57:57.746Z,1.10
2018-02-12T02:00:25.900Z,1.10
2018-02-12T02:02:54.020Z,1.00
2018-02-12T02:05:22.174Z,1.10
2018-02-12T02:07:50.301Z,1.00
2018-02-12T02:10:18.450Z,1.10
2018-02-12T02:12:46.575Z,1.10
2018-02-12T02:15:14.722Z,1.00
2018-02-12T02:17:42.846Z,1.00
2018-02-12T02:20:10.997Z,1.10
2018-02-12T02:22:39.129Z,1.00
2018-02-12T02:25:07.281Z,1.00
2018-02-12T02:27:35.404Z,1.00
2018-02-12T02:30:03.566Z,1.00
2018-02-12T02:32:31.693Z,1.00
2018-02-12T02:35:00.610Z,1.00
2018-02-12T02:37:28.734Z,1.00
2018-02-12T02:39:56.890Z,1.00
2018-02-12T02:42:25.015Z,1.10
2018-02-12T02:44:53.176Z,1.00
2018-02-12T02:47:21.298Z,1.00
2018-02-12T02:49:49.449Z,1.00
2018-02-12T02:52:17.583Z,1.00
2018-02-12T02:54:45.731Z,1.00
2018-02-12T02:57:13.857Z,1.00
2018-02-12T02:59:42.010Z,1.00
2018-02-12T03:02:10.895Z,1.00
2018-02-12T03:04:39.049Z,0.80
2018-02-12T03:07:07.177Z,0.90
2018-02-12T03:09:35.321Z,0.90
2018-02-12T03:12:03.445Z,0.90
2018-02-12T03:14:31.593Z,0.90
2018-02-12T03:16:59.709Z,0.90
2018-02-12T03:19:27.861Z,0.90
2018-02-12T03:21:55.986Z,0.90
2018-02-12T03:24:24.144Z,0.80
2018-02-12T03:26:52.264Z,0.90
2018-02-12T03:29:20.429Z,0.90
2018-02-12T03:31:48.559Z,0.90
2018-02-12T03:34:16.711Z,0.90
2018-02-12T03:36:44.832Z,0.90
2018-02-12T03:39:12.980Z,0.90
2018-02-12T03:41:41.101Z,0.90
2018-02-12T03:44:09.248Z,0.90
2018-02-12T03:46:37.378Z,1.00
2018-02-12T03:49:05.531Z,1.00
2018-02-12T03:51:33.662Z,1.10
2018-02-12T03:54:02.581Z,1.20
2018-02-12T03:56:30.705Z,1.20
2018-02-12T03:58:58.865Z,1.20
2018-02-12T04:01:26.993Z,1.20
2018-02-12T04:03:55.173Z,1.30
2018-02-12T04:06:23.314Z,1.30
2018-02-12T04:08:52.212Z,1.30
2018-02-12T04:11:20.375Z,1.20
2018-02-12T04:13:49.268Z,1.30
2018-02-12T04:16:17.421Z,1.30
2018-02-12T04:18:45.549Z,1.20
2018-02-12T04:21:13.700Z,1.30
2018-02-12T04:23:41.838Z,1.30
2018-02-12T04:26:09.984Z,1.30
2018-02-12T04:28:38.112Z,1.30
2018-02-12T04:31:07.028Z,1.30
2018-02-12T04:33:35.163Z,1.40
2018-02-12T04:36:03.313Z,1.40
2018-02-12T04:38:31.442Z,1.40
2018-02-12T04:40:59.601Z,1.40
2018-02-12T04:43:27.737Z,1.40
2018-02-12T04:45:55.891Z,1.40
2018-02-12T04:48:24.024Z,1.40
2018-02-12T04:50:52.165Z,1.40
2018-02-12T04:53:20.293Z,1.40
2018-02-12T04:55:48.445Z,1.40
2018-02-12T04:58:17.339Z,1.40
2018-02-12T05:00:45.497Z,1.50
2018-02-12T05:03:14.397Z,1.40
2018-02-12T05:05:42.551Z,1.50
2018-02-12T05:08:10.681Z,1.40
2018-02-12T05:10:38.834Z,1.40
2018-02-12T05:13:06.961Z,1.40
2018-02-12T05:15:35.118Z,1.40
2018-02-12T05:18:03.247Z,1.40
2018-02-12T05:20:31.396Z,1.40
2018-02-12T05:22:59.525Z,1.40
2018-02-12T05:25:27.681Z,1.40
2018-02-12T05:27:55.814Z,1.40
2018-02-12T05:30:23.969Z,1.40
2018-02-12T05:32:52.101Z,1.40
2018-02-12T05:35:20.254Z,1.40
2018-02-12T05:37:48.385Z,1.40
2018-02-12T05:40:16.537Z,1.50
2018-02-12T05:42:44.660Z,1.50
2018-02-12T05:45:12.808Z,1.50
2018-02-12T05:47:40.932Z,1.50
2018-02-12T05:50:09.086Z,1.50
2018-02-12T05:52:37.980Z,1.60
2018-02-12T05:55:06.125Z,1.60
2018-02-12T05:57:34.257Z,1.60
2018-02-12T06:00:02.417Z,1.60
2018-02-12T06:02:30.556Z,1.60
2018-02-12T06:04:58.725Z,1.60
2018-02-12T06:07:26.858Z,1.60
2018-02-12T06:09:55.017Z,1.50
2018-02-12T06:12:23.153Z,1.50
2018-02-12T06:14:51.310Z,1.40
2018-02-12T06:17:19.433Z,1.40
2018-02-12T06:19:47.614Z,1.40
2018-02-12T06:22:15.738Z,1.40
2018-02-12T06:24:43.861Z,1.30
2018-02-12T06:27:12.015Z,1.30
2018-02-12T06:29:40.150Z,1.30
2018-02-12T06:32:08.303Z,1.30
2018-02-12T06:34:36.424Z,1.30
2018-02-12T06:37:04.599Z,1.30
2018-02-12T06:39:33.485Z,1.30
2018-02-12T06:42:01.635Z,1.40
2018-02-12T06:44:29.765Z,1.30
2018-02-12T06:46:57.920Z,1.30
2018-02-12T06:49:26.042Z,1.30
2018-02-12T06:51:54.190Z,1.30
2018-02-12T06:54:22.329Z,1.40
2018-02-12T06:56:51.244Z,1.40
2018-02-12T06:59:19.369Z,1.30
2018-02-12T07:01:47.542Z,1.50
2018-02-12T07:04:15.664Z,1.50
2018-02-12T07:06:43.826Z,1.60
2018-02-12T07:09:11.973Z,1.60
2018-02-12T07:11:40.132Z,1.60
2018-02-12T07:14:08.252Z,1.70
2018-02-12T07:16:36.412Z,1.80
2018-02-12T07:19:04.559Z,1.80
2018-02-12T07:21:32.722Z,1.80
2018-02-12T07:24:00.869Z,1.80
2018-02-12T07:26:29.021Z,1.80
2018-02-12T07:28:57.153Z,1.80
2018-02-12T07:31:25.319Z,1.80
2018-02-12T07:33:53.454Z,1.90
2018-02-12T07:36:21.602Z,1.90
2018-02-12T07:38:49.725Z,1.90
2018-02-12T07:41:17.914Z,1.90
2018-02-12T07:43:46.037Z,2.00
2018-02-12T07:46:14.186Z,2.00
2018-02-12T07:48:42.321Z,2.10
2018-02-12T07:51:10.477Z,2.10
2018-02-12T07:53:38.605Z,2.20
2018-02-12T07:56:06.749Z,2.30
2018-02-12T07:58:34.877Z,2.30
2018-02-12T08:01:03.040Z,2.40
2018-02-12T08:03:31.160Z,2.40
2018-02-12T08:05:59.317Z,2.50
2018-02-12T08:08:27.441Z,2.50
2018-02-12T08:10:55.599Z,2.50
2018-02-12T08:13:23.730Z,2.50
2018-02-12T08:15:51.889Z,2.50
2018-02-12T08:18:20.013Z,2.60
2018-02-12T08:20:48.170Z,2.60
2018-02-12T08:23:16.298Z,2.70
2018-02-12T08:25:44.444Z,2.70
2018-02-12T08:28:12.570Z,2.70
2018-02-12T08:30:40.720Z,2.80
2018-02-12T08:33:08.851Z,2.80
2018-02-12T08:35:36.996Z,2.80
2018-02-12T08:38:05.123Z,2.80
2018-02-12T08:40:34.046Z,2.80
2018-02-12T08:43:02.170Z,2.70
2018-02-12T08:45:30.335Z,2.80
2018-02-12T08:47:58.456Z,2.80
2018-02-12T08:50:26.585Z,2.80
2018-02-12T08:52:54.728Z,2.70
2018-02-12T08:55:22.862Z,2.80
2018-02-12T08:57:51.013Z,2.80
2018-02-12T09:00:19.133Z,2.80
2018-02-12T09:02:47.287Z,2.90
2018-02-12T09:05:15.406Z,2.90
2018-02-12T09:07:43.574Z,2.90
2018-02-12T09:10:11.692Z,3.00
2018-02-12T09:12:39.844Z,3.00
2018-02-12T09:15:07.976Z,3.00
2018-02-12T09:17:36.124Z,3.10
2018-02-12T09:20:04.254Z,3.10
2018-02-12T09:22:32.437Z,3.10
2018-02-12T09:25:00.548Z,3.20
2018-02-12T09:27:28.770Z,3.30
2018-02-12T09:29:56.893Z,3.30
2018-02-12T09:32:25.060Z,3.40
2018-02-12T09:34:53.189Z,3.50
2018-02-12T09:37:21.339Z,3.70
2018-02-12T09:39:49.483Z,4.00
2018-02-12T09:42:17.633Z,4.20
2018-02-12T09:44:46.534Z,4.30
2018-02-12T09:47:14.678Z,4.30
2018-02-12T09:49:42.801Z,4.30
2018-02-12T09:52:10.959Z,4.20
2018-02-12T09:54:39.084Z,4.10
2018-02-12T09:57:07.251Z,4.10
2018-02-12T09:59:35.377Z,4.00
2018-02-12T10:02:04.300Z,3.90
2018-02-12T10:04:32.424Z,4.00
2018-02-12T10:07:00.584Z,3.90
2018-02-12T10:09:28.704Z,3.90
2018-02-12T10:11:56.865Z,3.90
2018-02-12T10:14:24.993Z,4.00
2018-02-12T10:16:53.140Z,4.00
2018-02-12T10:19:21.257Z,4.00
2018-02-12T10:21:49.412Z,4.00
2018-02-12T10:24:17.571Z,3.90
2018-02-12T10:26:45.730Z,3.90
2018-02-12T10:29:13.862Z,3.90
2018-02-12T10:31:42.010Z,3.90
2018-02-12T10:34:10.136Z,3.90
2018-02-12T10:36:38.283Z,4.00
2018-02-12T10:39:07.173Z,4.00
2018-02-12T10:41:35.358Z,4.00
2018-02-12T10:44:04.250Z,4.00
2018-02-12T10:46:32.404Z,4.00
2018-02-12T10:49:00.529Z,3.90
2018-02-12T10:51:28.681Z,3.80
2018-02-12T10:53:56.810Z,3.70
2018-02-12T10:56:24.973Z,3.50
2018-02-12T10:58:53.094Z,3.40
2018-02-12T11:01:21.253Z,3.30
2018-02-12T11:03:49.378Z,3.30
2018-02-12T11:06:17.525Z,3.20
2018-02-12T11:08:45.645Z,3.20
2018-02-12T11:11:13.768Z,3.10
2018-02-12T11:13:41.938Z,3.10
2018-02-12T11:16:10.063Z,3.10
2018-02-12T11:18:38.228Z,3.10
2018-02-12T11:21:06.361Z,3.10
2018-02-12T11:23:34.508Z,3.20
2018-02-12T11:26:02.632Z,3.10
2018-02-12T11:28:30.851Z,3.20
2018-02-12T11:30:58.969Z,3.20
2018-02-12T11:33:27.120Z,3.20
2018-02-12T11:35:55.256Z,3.20
2018-02-12T11:38:23.413Z,3.20
2018-02-12T11:40:51.533Z,3.30
2018-02-12T11:43:20.448Z,3.30
2018-02-12T11:45:48.581Z,3.30
2018-02-12T11:48:16.729Z,3.30
2018-02-12T11:50:44.865Z,3.40
2018-02-12T11:53:13.017Z,3.40
2018-02-12T11:55:41.142Z,3.40
2018-02-12T11:58:09.292Z,3.40
2018-02-12T12:00:37.421Z,3.50
2018-02-12T12:03:05.692Z,3.50
2018-02-12T12:05:33.826Z,3.50
2018-02-12T12:08:01.986Z,3.40
2018-02-12T12:10:30.113Z,3.40
2018-02-12T12:12:58.262Z,3.40
2018-02-12T12:15:26.384Z,3.50
2018-02-12T12:17:54.543Z,3.50
2018-02-12T12:20:22.720Z,3.50
2018-02-12T12:22:50.883Z,3.50
2018-02-12T12:25:19.032Z,3.60
2018-02-12T12:27:47.181Z,3.60
2018-02-12T12:30:15.300Z,3.60
2018-02-12T12:32:43.469Z,3.60
2018-02-12T12:35:11.610Z,3.60
2018-02-12T12:37:39.760Z,3.60
2018-02-12T12:40:07.898Z,3.60
2018-02-12T12:42:36.053Z,3.60
2018-02-12T12:45:04.180Z,3.60
2018-02-12T12:47:32.334Z,3.50
2018-02-12T12:50:00.464Z,3.50
2018-02-12T12:52:28.617Z,3.50
2018-02-12T12:54:56.747Z,3.50
2018-02-12T12:57:25.678Z,3.60
2018-02-12T12:59:53.798Z,3.60
2018-02-12T13:02:22.029Z,3.60
2018-02-12T13:04:50.162Z,3.70
2018-02-12T13:07:18.335Z,3.70
2018-02-12T13:09:47.226Z,3.90
2018-02-12T13:12:15.387Z,3.80
2018-02-12T13:14:43.512Z,3.90
2018-02-12T13:17:11.668Z,4.00
2018-02-12T13:19:40.653Z,4.00
2018-02-12T13:22:08.818Z,4.10
2018-02-12T13:24:36.946Z,4.10
2018-02-12T13:27:05.069Z,4.10
2018-02-12T13:29:33.216Z,4.00
2018-02-12T13:32:01.350Z,4.00
2018-02-12T13:34:29.529Z,4.00
2018-02-12T13:36:57.653Z,4.00
2018-02-12T13:39:26.658Z,3.90
2018-02-12T13:41:54.787Z,3.90
2018-02-12T13:44:22.985Z,3.90
2018-02-12T13:46:51.073Z,3.90
2018-02-12T13:49:19.223Z,3.90
2018-02-12T13:51:47.349Z,3.90
2018-02-12T13:54:15.538Z,3.90
2018-02-12T13:56:43.674Z,3.90
2018-02-12T13:59:11.832Z,3.90
2018-02-12T14:01:40.719Z,3.90
2018-02-12T14:04:08.882Z,3.80
2018-02-12T14:06:37.010Z,3.90
2018-02-12T14:09:05.188Z,3.90
2018-02-12T14:11:33.314Z,3.90
2018-02-12T14:14:01.460Z,3.90
2018-02-12T14:16:29.637Z,4.00
2018-02-12T14:18:57.798Z,4.00
2018-02-12T14:21:25.922Z,4.00
2018-02-12T14:23:54.091Z,4.00
2018-02-12T14:26:22.993Z,4.00
2018-02-12T14:28:51.146Z,4.00
2018-02-12T14:31:20.052Z,4.00
2018-02-12T14:33:48.207Z,4.00
2018-02-12T14:36:17.088Z,4.10
2018-02-12T14:38:45.254Z,4.10
2018-02-12T14:41:13.383Z,4.10
2018-02-12T14:43:41.533Z,4.10
2018-02-12T14:46:09.657Z,4.10
2018-02-12T14:48:37.816Z,4.10
2018-02-12T14:51:05.943Z,4.10
2018-02-12T14:53:34.847Z,4.20
2018-02-12T14:56:03.005Z,4.10
2018-02-12T14:58:31.920Z,4.30
2018-02-12T15:01:00.075Z,4.20
2018-02-12T15:03:28.989Z,4.30
2018-02-12T15:05:57.110Z,4.20
2018-02-12T15:08:25.261Z,4.30
2018-02-12T15:10:53.391Z,4.30
2018-02-12T15:13:21.537Z,4.30
2018-02-12T15:15:49.666Z,4.30
2018-02-12T15:18:17.817Z,4.30
2018-02-12T15:20:45.946Z,4.30
2018-02-12T15:23:14.127Z,4.30
2018-02-12T15:25:42.258Z,4.20
2018-02-12T15:28:10.418Z,4.20
2018-02-12T15:30:38.543Z,4.20
2018-02-12T15:33:06.709Z,4.20
2018-02-12T15:35:34.829Z,4.30
2018-02-12T15:38:02.994Z,4.30
2018-02-12T15:40:31.935Z,4.30
2018-02-12T15:43:00.129Z,4.30
2018-02-12T15:45:28.261Z,4.20
2018-02-12T15:47:56.439Z,4.10
2018-02-12T15:50:24.576Z,3.80
2018-02-12T15:52:53.507Z,3.20
2018-02-12T15:55:21.684Z,3.20
2018-02-12T15:57:49.829Z,3.00
2018-02-12T16:00:18.013Z,2.70
2018-02-12T16:02:46.164Z,2.60
2018-02-12T16:05:15.077Z,2.40
2018-02-12T16:07:43.200Z,2.40
2018-02-12T16:10:11.357Z,2.40
2018-02-12T16:12:39.534Z,2.30
2018-02-12T16:15:07.657Z,2.30
2018-02-12T16:17:35.797Z,2.30
2018-02-12T16:20:03.954Z,2.30
2018-02-12T16:22:32.085Z,2.30
2018-02-12T16:25:00.245Z,2.20
2018-02-12T16:27:28.383Z,2.20
2018-02-12T16:29:56.527Z,2.20
2018-02-12T16:32:24.661Z,2.10
2018-02-12T16:34:52.824Z,2.10
2018-02-12T16:37:20.946Z,2.10
2018-02-12T16:39:49.100Z,2.10
2018-02-12T16:42:17.225Z,2.00
2018-02-12T16:44:45.374Z,2.00
2018-02-12T16:47:13.520Z,2.00
2018-02-12T16:49:41.681Z,2.00
2018-02-12T16:52:09.814Z,2.00
2018-02-12T16:54:37.977Z,1.90
2018-02-12T16:57:06.101Z,1.90
2018-02-12T16:59:34.257Z,1.90
2018-02-12T17:02:03.157Z,1.80
2018-02-12T17:04:31.301Z,1.80
2018-02-12T17:06:59.425Z,1.80
2018-02-12T17:09:27.582Z,1.80
2018-02-12T17:11:55.712Z,1.80
2018-02-12T17:14:23.878Z,1.80
2018-02-12T17:16:52.006Z,1.80
2018-02-12T17:19:20.158Z,1.80
2018-02-12T17:21:48.281Z,1.80
2018-02-12T17:24:16.436Z,1.80
2018-02-12T17:26:44.585Z,1.80
2018-02-12T17:29:13.505Z,1.70
2018-02-12T17:31:41.630Z,1.70
2018-02-12T17:34:09.776Z,1.70
2018-02-12T17:36:37.909Z,1.70
2018-02-12T17:39:06.071Z,1.70
2018-02-12T17:41:34.377Z,1.70
2018-02-12T17:44:02.532Z,1.70
2018-02-12T17:46:30.649Z,1.70
2018-02-12T17:48:58.817Z,1.70
2018-02-12T17:51:26.958Z,1.60
2018-02-12T17:53:55.126Z,1.70
2018-02-12T17:56:23.326Z,1.70
2018-02-12T17:58:52.289Z,1.70
2018-02-12T18:01:20.455Z,1.60
2018-02-12T18:03:48.627Z,1.60
2018-02-12T18:06:16.777Z,1.60
2018-02-12T18:08:44.937Z,1.60
2018-02-12T18:11:13.073Z,1.60
2018-02-12T18:13:41.306Z,1.50
2018-02-12T18:16:09.441Z,1.60
2018-02-12T18:18:37.600Z,1.60
2018-02-12T18:21:05.848Z,1.50
2018-02-12T18:23:34.753Z,1.50
2018-02-12T18:26:02.905Z,1.40
2018-02-12T18:28:31.866Z,1.50
2018-02-12T18:31:00.019Z,1.50
2018-02-12T18:33:28.161Z,1.50
2018-02-12T18:35:56.317Z,1.50
2018-02-12T18:38:24.458Z,1.50
2018-02-12T18:40:52.630Z,1.50
2018-02-12T18:43:20.775Z,1.50
2018-02-12T18:45:48.927Z,1.50
2018-02-12T18:48:17.852Z,1.50
2018-02-12T18:50:46.037Z,1.50
2018-02-12T18:53:14.168Z,1.50
2018-02-12T18:55:42.478Z,1.60
2018-02-12T18:58:10.731Z,1.60
2018-02-12T19:00:39.055Z,1.50
2018-02-12T19:03:07.303Z,1.50
2018-02-12T19:05:35.484Z,1.50
2018-02-12T19:08:03.618Z,1.50
2018-02-12T19:10:31.768Z,1.40
2018-02-12T19:12:59.892Z,1.40
2018-02-12T19:15:28.049Z,1.40
2018-02-12T19:17:56.184Z,1.40
2018-02-12T19:20:24.348Z,1.40
2018-02-12T19:22:52.532Z,1.40
2018-02-12T19:25:20.694Z,1.30
2018-02-12T19:27:48.845Z,1.30
2018-02-12T19:30:17.242Z,1.30
2018-02-12T19:32:45.822Z,1.20
2018-02-12T19:35:14.335Z,1.20
2018-02-12T19:37:42.484Z,1.20
2018-02-12T19:40:10.605Z,1.20
2018-02-12T19:42:39.924Z,1.20
2018-02-12T19:45:08.538Z,1.10
2018-02-12T19:47:36.726Z,1.10
2018-02-12T19:50:04.913Z,1.10
2018-02-12T19:52:33.046Z,1.10
2018-02-12T19:55:01.257Z,1.10
2018-02-12T19:57:29.470Z,1.00
2018-02-12T19:59:57.703Z,1.00
2018-02-12T20:02:25.837Z,1.00
2018-02-12T20:04:54.068Z,0.90
2018-02-12T20:07:23.058Z,0.90
2018-02-12T20:09:51.977Z,0.90
2018-02-12T20:12:20.107Z,1.00
2018-02-12T20:14:48.266Z,1.00
2018-02-12T20:17:16.394Z,1.00
2018-02-12T20:19:44.770Z,1.00
2018-02-12T20:22:13.455Z,1.00
2018-02-12T20:24:42.281Z,1.00
2018-02-12T20:27:10.937Z,1.00
2018-02-12T20:29:39.970Z,1.00
2018-02-12T20:32:08.105Z,1.10
2018-02-12T20:34:36.301Z,1.00
2018-02-12T20:37:04.466Z,1.00
2018-02-12T20:39:32.625Z,1.00
2018-02-12T20:42:00.780Z,0.90
2018-02-12T20:44:28.993Z,0.90
2018-02-12T20:46:57.200Z,0.90
2018-02-12T20:49:25.352Z,1.00
2018-02-12T20:51:53.522Z,1.00
2018-02-12T20:54:21.693Z,1.00
2018-02-12T20:56:50.109Z,1.00
2018-02-12T20:59:19.115Z,1.00
2018-02-12T21:01:47.264Z,1.00
2018-02-12T21:04:15.442Z,1.10
2018-02-12T21:06:43.609Z,1.10
2018-02-12T21:09:11.737Z,1.10
2018-02-12T21:11:39.889Z,1.20
2018-02-12T21:14:08.014Z,1.20
2018-02-12T21:16:36.167Z,1.20
2018-02-12T21:19:04.301Z,1.20
2018-02-12T21:21:32.462Z,1.20
2018-02-12T21:24:00.663Z,1.20
2018-02-12T21:26:29.584Z,1.20
2018-02-12T21:28:58.466Z,1.20
2018-02-12T21:31:26.629Z,1.20
2018-02-12T21:33:54.754Z,1.20
2018-02-12T21:36:22.901Z,1.20
2018-02-12T21:38:51.027Z,1.20
2018-02-12T21:41:19.179Z,1.10
2018-02-12T21:43:47.294Z,1.10
2018-02-12T21:46:15.441Z,1.10
2018-02-12T21:48:44.350Z,1.00
2018-02-12T21:51:12.511Z,1.00
2018-02-12T21:53:41.405Z,0.90
2018-02-12T21:56:09.572Z,0.90
2018-02-12T21:58:38.470Z,0.80
2018-02-12T22:01:07.383Z,0.80
2018-02-12T22:03:35.496Z,0.80
2018-02-12T22:06:03.686Z,0.70
2018-02-12T22:08:31.811Z,0.70
2018-02-12T22:10:59.977Z,0.70
2018-02-12T22:13:28.117Z,0.70
2018-02-12T22:15:56.270Z,0.70
2018-02-12T22:18:24.402Z,0.70
2018-02-12T22:20:52.564Z,0.70
2018-02-12T22:23:20.681Z,0.80
2018-02-12T22:25:48.834Z,0.90
2018-02-12T22:28:16.965Z,0.90
2018-02-12T22:30:45.883Z,0.90
2018-02-12T22:33:14.004Z,0.80
2018-02-12T22:35:42.165Z,0.90
2018-02-12T22:38:10.288Z,0.90
2018-02-12T22:40:38.437Z,0.90
2018-02-12T22:43:06.575Z,1.00
2018-02-12T22:45:34.725Z,1.00
2018-02-12T22:48:02.862Z,1.20
2018-02-12T22:50:31.013Z,1.10
2018-02-12T22:52:59.141Z,1.10
2018-02-12T22:55:27.294Z,1.10
2018-02-12T22:57:55.430Z,1.10
2018-02-12T23:00:23.581Z,1.10
2018-02-12T23:02:51.716Z,1.10
2018-02-12T23:05:19.902Z,1.10
2018-02-12T23:07:48.030Z,1.20
2018-02-12T23:10:16.176Z,1.20
2018-02-12T23:12:44.298Z,1.20
2018-02-12T23:15:18.210Z,1.20
2018-02-12T23:17:46.348Z,1.20
2018-02-12T23:20:14.518Z,1.20
2018-02-12T23:22:42.650Z,1.20
2018-02-12T23:25:10.774Z,1.20
2018-02-12T23:27:38.939Z,1.20
2018-02-12T23:30:07.060Z,1.20
2018-02-12T23:32:35.970Z,1.20
2018-02-12T23:35:04.092Z,1.10
2018-02-12T23:37:32.281Z,1.10
2018-02-12T23:40:00.406Z,1.10
2018-02-12T23:42:28.562Z,1.10
2018-02-12T23:44:56.682Z,1.10
2018-02-12T23:47:24.829Z,1.10
2018-02-12T23:49:52.956Z,1.10
2018-02-12T23:52:21.105Z,1.10
2018-02-12T23:54:49.238Z,1.10
2018-02-12T23:57:17.389Z,1.10
2018-02-12T23:59:45.519Z,1.10
